createdAt,value
2022-11-19T00:01:26.444Z,39.83
2022-11-19T00:03:54.065Z,37.55
2022-11-19T00:06:26.747Z,36.45
2022-11-19T00:08:54.118Z,41.67
2022-11-19T00:11:55.154Z,41.70
2022-11-19T00:14:26.039Z,36.40
2022-11-19T00:16:52.921Z,39.05
2022-11-19T00:19:20.142Z,38.03
2022-11-19T00:21:47.185Z,41.00
2022-11-19T00:24:14.345Z,39.78
2022-11-19T00:26:41.197Z,43.55
2022-11-19T00:29:16.851Z,40.40
2022-11-19T00:31:46.082Z,43.47
2022-11-19T00:34:13.219Z,39.75
2022-11-19T00:36:40.162Z,41.53
2022-11-19T00:39:07.129Z,41.28
2022-11-19T00:41:34.036Z,40.83
2022-11-19T00:44:00.846Z,39.83
2022-11-19T00:46:30.033Z,40.88
2022-11-19T00:48:59.148Z,42.15
2022-11-19T00:51:29.156Z,39.78
2022-11-19T00:53:56.554Z,41.42
2022-11-19T00:56:25.265Z,46.15
2022-11-19T00:58:52.350Z,45.67
2022-11-19T01:01:21.551Z,42.03
2022-11-19T01:03:49.057Z,44.80
2022-11-19T01:06:19.406Z,43.05
2022-11-19T01:08:49.932Z,45.15
2022-11-19T01:11:21.327Z,43.83
2022-11-19T01:13:49.062Z,42.97
2022-11-19T01:16:32.673Z,47.08
2022-11-19T01:18:59.655Z,41.50
2022-11-19T01:21:29.471Z,47.13
2022-11-19T01:23:56.969Z,44.78
2022-11-19T01:26:24.320Z,40.17
2022-11-19T01:28:51.350Z,47.10
2022-11-19T01:31:26.193Z,44.42
2022-11-19T01:33:53.608Z,45.40
2022-11-19T01:36:23.104Z,44.05
2022-11-19T01:38:51.228Z,46.15
2022-11-19T01:41:19.684Z,45.08
2022-11-19T01:43:51.952Z,46.10
2022-11-19T01:46:22.844Z,49.28
2022-11-19T01:49:00.568Z,48.53
2022-11-19T01:51:29.449Z,48.72
2022-11-19T01:54:00.517Z,49.08
2022-11-19T01:56:28.283Z,42.50
2022-11-19T01:59:04.092Z,45.65
2022-11-19T02:01:32.195Z,44.22
2022-11-19T02:04:01.421Z,50.15
2022-11-19T02:06:33.560Z,48.25
2022-11-19T02:09:00.388Z,48.83
2022-11-19T02:11:29.997Z,49.55
2022-11-19T02:14:24.413Z,47.60
2022-11-19T02:16:56.979Z,45.78
2022-11-19T02:19:35.683Z,48.63
2022-11-19T02:22:20.553Z,52.28
2022-11-19T02:25:19.398Z,47.00
2022-11-19T02:28:15.408Z,44.58
2022-11-19T02:31:18.525Z,52.20
2022-11-19T02:34:23.630Z,44.13
2022-11-19T02:37:17.273Z,46.50
2022-11-19T02:39:59.258Z,47.85
2022-11-19T02:42:30.486Z,45.50
2022-11-19T02:45:05.630Z,45.28
2022-11-19T02:47:48.114Z,47.47
2022-11-19T02:50:32.322Z,46.92
2022-11-19T02:52:59.550Z,48.38
2022-11-19T02:55:27.692Z,50.53
2022-11-19T02:58:36.271Z,48.33
2022-11-19T03:01:24.963Z,51.33
2022-11-19T03:04:12.180Z,48.67
2022-11-19T03:06:40.331Z,42.97
2022-11-19T03:09:07.186Z,51.15
2022-11-19T03:11:34.175Z,50.30
2022-11-19T03:14:39.436Z,43.15
2022-11-19T03:17:26.117Z,46.72
2022-11-19T03:20:31.446Z,48.42
2022-11-19T03:23:18.487Z,52.97
2022-11-19T03:25:55.219Z,47.03
2022-11-19T03:28:27.457Z,49.75
2022-11-19T03:30:58.597Z,45.17
2022-11-19T03:33:33.992Z,48.20
2022-11-19T03:36:08.187Z,44.38
2022-11-19T03:38:50.217Z,45.03
2022-11-19T03:41:20.223Z,43.85
2022-11-19T03:43:53.513Z,48.00
2022-11-19T03:48:51.756Z,45.55
2022-11-19T03:51:29.092Z,45.70
2022-11-19T03:53:56.062Z,43.72
2022-11-19T03:56:26.228Z,43.92
2022-11-19T03:58:54.282Z,45.47
2022-11-19T04:01:21.786Z,45.35
2022-11-19T04:04:07.153Z,46.60
2022-11-19T04:06:33.993Z,47.92
2022-11-19T04:09:00.790Z,49.17
2022-11-19T04:13:53.268Z,50.85
2022-11-19T04:16:21.116Z,48.60
2022-11-19T04:18:47.925Z,46.47
2022-11-19T04:21:15.054Z,49.13
2022-11-19T04:23:41.941Z,50.67
2022-11-19T04:26:08.744Z,46.55
2022-11-19T04:28:35.526Z,43.97
2022-11-19T04:31:02.354Z,45.22
2022-11-19T04:33:29.175Z,42.95
2022-11-19T04:35:55.953Z,42.25
2022-11-19T04:38:22.762Z,43.05
2022-11-19T04:40:49.600Z,45.03
2022-11-19T04:43:16.358Z,44.45
2022-11-19T04:45:43.371Z,41.22
2022-11-19T04:48:10.146Z,43.30
2022-11-19T04:50:36.974Z,39.35
2022-11-19T04:53:03.919Z,38.42
2022-11-19T04:55:30.840Z,39.28
2022-11-19T04:57:57.608Z,40.30
2022-11-19T05:00:24.539Z,38.67
2022-11-19T05:02:51.293Z,40.92
2022-11-19T05:05:18.079Z,38.38
2022-11-19T05:07:46.575Z,39.08
2022-11-19T05:10:13.651Z,37.78
2022-11-19T05:12:40.469Z,39.38
2022-11-19T05:15:09.281Z,37.58
2022-11-19T05:17:36.202Z,34.47
2022-11-19T05:20:03.561Z,44.45
2022-11-19T05:22:30.545Z,36.15
2022-11-19T05:24:57.339Z,34.65
2022-11-19T05:27:25.054Z,38.30
2022-11-19T05:29:54.449Z,38.83
2022-11-19T05:32:21.344Z,38.70
2022-11-19T05:34:48.563Z,40.63
2022-11-19T05:37:15.459Z,38.80
2022-11-19T05:39:42.387Z,38.38
2022-11-19T05:42:10.255Z,37.95
2022-11-19T05:44:37.055Z,37.75
2022-11-19T05:47:03.843Z,39.47
2022-11-19T05:49:30.663Z,34.90
2022-11-19T05:51:57.493Z,38.35
2022-11-19T05:54:24.428Z,36.45
2022-11-19T05:56:52.367Z,38.95
2022-11-19T05:59:21.894Z,35.28
2022-11-19T06:01:48.952Z,40.40
2022-11-19T06:04:15.812Z,39.17
2022-11-19T06:06:42.689Z,37.55
2022-11-19T06:09:09.816Z,37.63
2022-11-19T06:11:48.414Z,33.72
2022-11-19T06:14:17.104Z,37.33
2022-11-19T06:16:44.569Z,35.55
2022-11-19T06:19:11.585Z,35.50
2022-11-19T06:21:38.342Z,33.60
2022-11-19T06:24:05.404Z,33.92
2022-11-19T06:26:32.152Z,37.88
2022-11-19T06:28:58.978Z,34.90
2022-11-19T06:31:25.857Z,33.50
2022-11-19T06:33:53.668Z,35.25
2022-11-19T06:36:21.055Z,35.15
2022-11-19T06:38:48.203Z,32.63
2022-11-19T06:41:15.434Z,38.75
2022-11-19T06:43:43.236Z,35.35
2022-11-19T06:46:11.619Z,34.85
2022-11-19T06:48:38.864Z,34.88
2022-11-19T06:51:06.484Z,35.17
2022-11-19T06:53:33.559Z,34.00
2022-11-19T06:56:02.473Z,31.55
2022-11-19T06:58:30.881Z,36.72
2022-11-19T07:00:58.088Z,33.10
2022-11-19T07:03:25.605Z,34.85
2022-11-19T07:05:57.916Z,31.65
2022-11-19T07:08:25.896Z,32.13
2022-11-19T07:10:52.704Z,34.33
2022-11-19T07:13:19.497Z,33.65
2022-11-19T07:15:46.326Z,35.80
2022-11-19T07:18:14.133Z,31.45
2022-11-19T07:20:41.557Z,33.83
2022-11-19T07:23:12.039Z,30.85
2022-11-19T07:25:38.896Z,31.42
2022-11-19T07:28:06.116Z,31.45
2022-11-19T07:30:34.293Z,31.27
2022-11-19T07:33:01.114Z,33.53
2022-11-19T07:35:28.037Z,35.33
2022-11-19T07:37:56.093Z,33.40
2022-11-19T07:40:22.914Z,36.20
2022-11-19T07:42:49.825Z,30.52
2022-11-19T07:45:20.500Z,34.15
2022-11-19T07:47:47.487Z,30.52
2022-11-19T07:50:14.706Z,30.98
2022-11-19T07:52:41.526Z,32.75
2022-11-19T07:55:08.793Z,34.40
2022-11-19T07:57:36.454Z,35.30
2022-11-19T08:00:04.517Z,29.92
2022-11-19T08:02:39.485Z,28.60
2022-11-19T08:05:06.483Z,36.13
2022-11-19T08:07:33.398Z,31.27
2022-11-19T08:10:00.193Z,31.90
2022-11-19T08:12:27.039Z,29.02
2022-11-19T08:14:53.764Z,26.40
2022-11-19T08:17:39.208Z,32.50
2022-11-19T08:20:06.498Z,29.98
2022-11-19T08:22:33.322Z,31.58
2022-11-19T08:25:00.135Z,30.63
2022-11-19T08:27:26.940Z,31.92
2022-11-19T08:29:53.741Z,33.17
2022-11-19T08:32:20.571Z,31.10
2022-11-19T08:34:47.478Z,30.92
2022-11-19T08:37:14.447Z,29.77
2022-11-19T08:39:41.649Z,30.25
2022-11-19T08:42:28.113Z,32.25
2022-11-19T08:44:55.903Z,28.20
2022-11-19T08:47:23.015Z,30.88
2022-11-19T08:49:49.826Z,28.63
2022-11-19T08:52:16.617Z,27.65
2022-11-19T08:54:43.390Z,32.03
2022-11-19T08:57:10.103Z,30.90
2022-11-19T08:59:36.881Z,30.58
2022-11-19T09:02:03.684Z,26.92
2022-11-19T09:04:30.481Z,27.55
2022-11-19T09:06:58.639Z,30.15
2022-11-19T09:09:25.537Z,28.50
2022-11-19T09:11:52.312Z,29.48
2022-11-19T09:14:19.403Z,28.05
2022-11-19T09:16:46.916Z,30.42
2022-11-19T09:19:13.845Z,31.08
2022-11-19T09:21:40.795Z,30.23
2022-11-19T09:24:07.860Z,29.42
2022-11-19T09:26:35.382Z,26.00
2022-11-19T09:29:02.861Z,28.33
2022-11-19T09:31:29.681Z,26.38
2022-11-19T09:33:56.910Z,25.02
2022-11-19T09:36:23.857Z,25.60
2022-11-19T09:38:50.626Z,25.02
2022-11-19T09:41:32.901Z,22.77
2022-11-19T09:44:12.824Z,26.90
2022-11-19T09:46:39.509Z,25.45
2022-11-19T09:49:18.470Z,22.80
2022-11-19T09:51:55.096Z,23.75
2022-11-19T09:54:22.801Z,23.27
2022-11-19T09:56:56.388Z,23.38
2022-11-19T09:59:41.618Z,23.13
2022-11-19T10:02:23.026Z,25.42
2022-11-19T10:04:51.603Z,20.80
2022-11-19T10:07:30.471Z,21.13
2022-11-19T10:10:18.005Z,20.88
2022-11-19T10:13:12.168Z,19.77
2022-11-19T10:16:03.202Z,21.20
2022-11-19T10:18:54.947Z,20.77
2022-11-19T10:21:27.633Z,19.42
2022-11-19T10:24:18.352Z,22.42
2022-11-19T10:27:01.093Z,20.85
2022-11-19T10:29:37.188Z,20.98
2022-11-19T10:32:25.479Z,22.40
2022-11-19T10:34:58.745Z,19.35
2022-11-19T10:37:34.479Z,20.67
2022-11-19T10:40:14.429Z,22.52
2022-11-19T10:42:49.143Z,23.63
2022-11-19T10:45:19.098Z,22.98
2022-11-19T10:48:10.429Z,22.98
2022-11-19T10:50:37.640Z,22.95
2022-11-19T10:53:29.918Z,20.33
2022-11-19T10:56:19.189Z,24.73
2022-11-19T10:58:58.030Z,22.15
2022-11-19T11:01:35.715Z,20.38
2022-11-19T11:04:11.594Z,19.52
2022-11-19T11:06:51.910Z,22.90
2022-11-19T11:09:31.974Z,20.50
2022-11-19T11:12:33.821Z,23.17
2022-11-19T11:15:16.942Z,20.55
2022-11-19T11:17:46.864Z,21.13
2022-11-19T11:20:20.472Z,19.73
2022-11-19T11:22:50.776Z,21.67
2022-11-19T11:25:27.704Z,20.25
2022-11-19T11:28:16.444Z,21.90
2022-11-19T11:31:04.794Z,19.08
2022-11-19T11:33:39.535Z,20.20
2022-11-19T11:36:10.272Z,20.60
2022-11-19T11:38:49.169Z,18.30
2022-11-19T11:44:35.677Z,20.05
2022-11-19T11:47:16.242Z,19.95
2022-11-19T11:49:45.582Z,18.77
2022-11-19T11:52:12.272Z,21.92
2022-11-19T11:55:15.204Z,19.08
2022-11-19T11:58:02.314Z,17.45
2022-11-19T12:00:29.070Z,19.25
2022-11-19T12:03:09.048Z,20.05
2022-11-19T12:06:02.675Z,19.45
2022-11-19T12:08:56.481Z,18.98
2022-11-19T12:11:58.116Z,17.95
2022-11-19T12:14:41.596Z,19.13
2022-11-19T12:17:09.312Z,18.85
2022-11-19T12:19:51.637Z,21.60
2022-11-19T12:22:24.053Z,20.08
2022-11-19T12:25:07.871Z,18.57
2022-11-19T12:27:43.734Z,20.23
2022-11-19T12:30:21.454Z,18.40
2022-11-19T12:32:51.277Z,22.63
2022-11-19T12:35:27.001Z,19.92
2022-11-19T12:38:21.754Z,18.58
2022-11-19T12:41:18.325Z,18.95
2022-11-19T12:43:57.149Z,21.58
2022-11-19T12:46:53.806Z,19.05
2022-11-19T12:49:39.247Z,21.25
2022-11-19T12:52:11.936Z,21.55
2022-11-19T12:54:57.022Z,23.90
2022-11-19T12:57:30.418Z,20.55
2022-11-19T13:00:06.107Z,21.15
2022-11-19T13:02:41.797Z,23.10
2022-11-19T13:05:16.411Z,20.90
2022-11-19T13:07:59.278Z,20.52
2022-11-19T13:10:38.309Z,20.45
2022-11-19T13:13:09.215Z,18.92
2022-11-19T13:15:44.267Z,23.40
2022-11-19T13:18:16.408Z,19.27
2022-11-19T13:20:54.798Z,18.27
2022-11-19T13:23:34.116Z,21.70
2022-11-19T13:26:13.167Z,21.73
2022-11-19T13:28:54.878Z,21.40
2022-11-19T13:31:42.924Z,20.02
2022-11-19T13:34:40.064Z,22.77
2022-11-19T13:37:42.000Z,25.27
2022-11-19T13:40:24.485Z,26.65
2022-11-19T13:43:30.976Z,23.13
2022-11-19T13:46:18.407Z,22.27
2022-11-19T13:49:09.759Z,23.95
2022-11-19T13:51:42.617Z,26.08
2022-11-19T13:54:19.450Z,27.17
2022-11-19T13:56:49.547Z,25.92
2022-11-19T13:59:38.275Z,31.30
2022-11-19T14:02:17.011Z,31.05
2022-11-19T14:04:46.855Z,27.52
2022-11-19T14:07:33.752Z,30.42
2022-11-19T14:10:37.693Z,28.80
2022-11-19T14:13:22.679Z,28.85
2022-11-19T14:16:37.068Z,32.30
2022-11-19T14:22:14.606Z,28.67
2022-11-19T14:25:10.405Z,28.05
2022-11-19T14:27:37.462Z,27.63
2022-11-19T14:30:15.744Z,28.45
2022-11-19T14:32:51.638Z,31.05
2022-11-19T14:35:23.655Z,30.95
2022-11-19T14:37:57.658Z,30.58
2022-11-19T14:40:24.441Z,29.65
2022-11-19T14:43:21.907Z,31.85
2022-11-19T14:46:08.813Z,28.40
2022-11-19T14:48:47.428Z,32.42
2022-11-19T14:51:39.126Z,29.52
2022-11-19T14:54:31.072Z,24.55
2022-11-19T14:57:16.394Z,29.13
2022-11-19T14:59:52.290Z,27.65
2022-11-19T15:02:33.221Z,27.00
2022-11-19T15:05:19.770Z,25.48
2022-11-19T15:08:12.220Z,28.60
2022-11-19T15:11:07.065Z,26.70
2022-11-19T15:13:40.958Z,33.25
2022-11-19T15:16:16.903Z,24.13
2022-11-19T15:18:43.647Z,27.88
2022-11-19T15:21:28.926Z,26.35
2022-11-19T15:23:55.741Z,28.25
2022-11-19T15:26:52.200Z,27.00
2022-11-19T15:29:25.880Z,28.35
2022-11-19T15:32:36.607Z,26.55
2022-11-19T15:35:36.242Z,30.33
2022-11-19T15:38:19.879Z,26.45
2022-11-19T15:40:48.600Z,27.48
2022-11-19T15:43:48.398Z,27.33
2022-11-19T15:46:22.190Z,25.25
2022-11-19T15:49:19.515Z,26.13
2022-11-19T15:52:17.730Z,26.80
2022-11-19T15:54:45.097Z,28.50
2022-11-19T15:57:17.979Z,25.10
2022-11-19T15:59:47.919Z,26.52
2022-11-19T16:02:38.508Z,25.08
2022-11-19T16:05:06.530Z,25.77
2022-11-19T16:07:33.749Z,25.40
2022-11-19T16:10:01.118Z,25.48
2022-11-19T16:12:48.732Z,27.30
2022-11-19T16:15:44.532Z,28.92
2022-11-19T16:18:16.607Z,29.30
2022-11-19T16:20:48.765Z,25.25
2022-11-19T16:23:21.132Z,27.85
2022-11-19T16:25:49.069Z,29.80
2022-11-19T16:28:30.619Z,30.20
2022-11-19T16:31:10.017Z,25.10
2022-11-19T16:33:37.661Z,25.08
2022-11-19T16:36:19.540Z,24.00
2022-11-19T16:38:51.790Z,24.73
2022-11-19T16:41:42.100Z,25.08
2022-11-19T16:44:34.472Z,24.08
2022-11-19T16:47:15.227Z,26.45
2022-11-19T16:49:49.255Z,26.85
2022-11-19T16:52:41.902Z,26.55
2022-11-19T16:55:34.042Z,26.02
2022-11-19T16:58:22.462Z,31.27
2022-11-19T17:00:53.395Z,27.48
2022-11-19T17:03:27.614Z,28.08
2022-11-19T17:05:56.313Z,28.50
2022-11-19T17:08:38.959Z,26.48
2022-11-19T17:11:42.446Z,26.95
2022-11-19T17:14:23.399Z,29.75
2022-11-19T17:16:53.292Z,28.65
2022-11-19T17:19:27.999Z,28.85
2022-11-19T17:21:57.547Z,25.48
2022-11-19T17:24:28.007Z,26.75
2022-11-19T17:26:55.511Z,28.02
2022-11-19T17:29:24.077Z,30.85
2022-11-19T17:31:55.652Z,26.08
2022-11-19T17:34:33.986Z,22.98
2022-11-19T17:37:03.726Z,29.33
2022-11-19T17:39:30.466Z,32.42
2022-11-19T17:42:15.637Z,28.13
2022-11-19T17:44:43.380Z,29.73
2022-11-19T17:47:21.912Z,28.95
2022-11-19T17:49:50.387Z,32.67
2022-11-19T17:52:25.726Z,31.10
2022-11-19T17:54:55.274Z,30.13
2022-11-19T17:57:22.235Z,32.08
2022-11-19T17:59:49.113Z,28.65
2022-11-19T18:02:20.452Z,30.27
2022-11-19T18:04:48.066Z,27.52
2022-11-19T18:07:15.354Z,27.80
2022-11-19T18:09:42.885Z,31.40
2022-11-19T18:12:16.567Z,28.98
2022-11-19T18:14:43.839Z,30.27
2022-11-19T18:17:15.450Z,28.60
2022-11-19T18:19:43.326Z,28.80
2022-11-19T18:22:18.429Z,29.88
2022-11-19T18:24:50.652Z,31.73
2022-11-19T18:27:17.805Z,28.30
2022-11-19T18:29:44.911Z,31.27
2022-11-19T18:32:15.360Z,30.90
2022-11-19T18:34:42.591Z,29.92
2022-11-19T18:37:09.415Z,29.58
2022-11-19T18:39:36.361Z,32.25
2022-11-19T18:42:03.627Z,28.95
2022-11-19T18:44:36.177Z,33.83
2022-11-19T18:47:08.505Z,27.77
2022-11-19T18:49:37.002Z,27.05
2022-11-19T18:52:07.885Z,29.77
2022-11-19T18:54:35.095Z,32.30
2022-11-19T18:57:02.477Z,29.02
2022-11-19T18:59:30.263Z,29.10
2022-11-19T19:01:57.395Z,31.73
2022-11-19T19:04:26.927Z,29.38
2022-11-19T19:06:53.717Z,30.02
2022-11-19T19:09:21.332Z,31.52
2022-11-19T19:12:12.956Z,29.80
2022-11-19T19:14:40.451Z,30.98
2022-11-19T19:17:07.244Z,28.05
2022-11-19T19:19:34.070Z,28.33
2022-11-19T19:22:01.018Z,33.17
2022-11-19T19:24:28.096Z,32.08
2022-11-19T19:26:55.292Z,32.50
2022-11-19T19:29:22.384Z,28.77
2022-11-19T19:31:49.640Z,28.05
2022-11-19T19:34:17.029Z,30.15
2022-11-19T19:36:47.661Z,30.50
2022-11-19T19:39:18.143Z,31.23
2022-11-19T19:41:45.027Z,30.02
2022-11-19T19:44:11.757Z,32.42
2022-11-19T19:46:38.498Z,30.75
2022-11-19T19:49:05.376Z,28.80
2022-11-19T19:51:32.927Z,28.60
2022-11-19T19:54:00.154Z,30.77
2022-11-19T19:56:29.387Z,29.25
2022-11-19T19:58:57.535Z,28.75
2022-11-19T20:01:27.272Z,37.60
2022-11-19T20:04:00.535Z,35.85
2022-11-19T20:08:54.548Z,35.88
2022-11-19T20:11:26.042Z,34.10
2022-11-19T20:13:54.952Z,43.70
2022-11-19T20:16:27.828Z,36.55
2022-11-19T20:18:55.568Z,36.60
2022-11-19T20:21:25.600Z,34.05
2022-11-19T20:23:52.728Z,37.53
2022-11-19T20:26:23.038Z,35.10
2022-11-19T20:28:56.277Z,33.47
2022-11-19T20:31:23.379Z,34.10
2022-11-19T20:33:58.186Z,36.97
2022-11-19T20:36:26.584Z,35.00
2022-11-19T20:38:53.863Z,35.67
2022-11-19T20:41:40.764Z,35.17
2022-11-19T20:44:22.611Z,33.90
2022-11-19T20:46:57.985Z,39.28
2022-11-19T20:49:29.384Z,38.70
2022-11-19T20:51:57.076Z,34.15
2022-11-19T20:54:25.093Z,37.03
2022-11-19T20:56:53.163Z,42.90
2022-11-19T20:59:21.062Z,39.80
2022-11-19T21:01:52.183Z,39.38
2022-11-19T21:04:20.701Z,37.67
2022-11-19T21:06:47.762Z,42.25
2022-11-19T21:09:15.975Z,38.03
2022-11-19T21:11:43.759Z,37.60
2022-11-19T21:14:10.809Z,38.20
2022-11-19T21:16:37.708Z,42.75
2022-11-19T21:19:05.865Z,40.00
2022-11-19T21:21:32.912Z,40.10
2022-11-19T21:23:59.817Z,42.67
2022-11-19T21:26:28.317Z,37.58
2022-11-19T21:28:57.323Z,40.88
2022-11-19T21:31:39.203Z,39.17
2022-11-19T21:34:11.585Z,37.05
2022-11-19T21:36:38.953Z,38.10
2022-11-19T21:39:06.609Z,36.70
2022-11-19T21:41:34.111Z,36.00
2022-11-19T21:44:01.893Z,37.20
2022-11-19T21:46:30.207Z,36.70
2022-11-19T21:48:57.031Z,39.00
2022-11-19T21:51:25.189Z,37.35
2022-11-19T21:53:57.629Z,37.63
2022-11-19T21:56:26.143Z,39.03
2022-11-19T21:58:53.010Z,37.47
2022-11-19T22:01:20.062Z,40.10
2022-11-19T22:03:47.038Z,39.35
2022-11-19T22:06:13.825Z,37.05
2022-11-19T22:08:42.184Z,37.55
2022-11-19T22:11:29.946Z,35.65
2022-11-19T22:14:02.861Z,37.13
2022-11-19T22:16:31.005Z,35.10
2022-11-19T22:18:58.087Z,38.70
2022-11-19T22:21:25.713Z,38.47
2022-11-19T22:23:53.713Z,36.97
2022-11-19T22:26:20.641Z,36.13
2022-11-19T22:28:47.476Z,37.08
2022-11-19T22:31:15.556Z,33.08
2022-11-19T22:33:42.477Z,37.38
2022-11-19T22:36:11.037Z,39.75
2022-11-19T22:38:39.020Z,37.63
2022-11-19T22:41:12.547Z,38.00
2022-11-19T22:43:40.550Z,36.50
2022-11-19T22:46:09.390Z,36.85
2022-11-19T22:48:39.299Z,35.75
2022-11-19T22:51:09.017Z,31.20
2022-11-19T22:53:37.329Z,36.20
2022-11-19T22:56:06.483Z,34.28
2022-11-19T22:58:34.081Z,34.38
2022-11-19T23:01:01.444Z,37.13
2022-11-19T23:03:28.367Z,35.53
2022-11-19T23:05:56.665Z,36.63
2022-11-19T23:08:23.874Z,40.20
2022-11-19T23:10:58.378Z,39.40
2022-11-19T23:13:34.285Z,38.15
2022-11-19T23:16:18.917Z,36.25
2022-11-19T23:18:51.669Z,37.30
2022-11-19T23:21:21.896Z,37.85
2022-11-19T23:23:49.372Z,36.00
2022-11-19T23:26:18.217Z,35.20
2022-11-19T23:28:45.883Z,37.53
2022-11-19T23:31:17.411Z,40.50
2022-11-19T23:33:44.944Z,36.47
2022-11-19T23:36:17.081Z,38.20
2022-11-19T23:38:44.199Z,36.58
2022-11-19T23:41:13.694Z,36.80
2022-11-19T23:43:41.087Z,35.97
2022-11-19T23:46:09.187Z,37.60
2022-11-19T23:48:37.894Z,41.90
2022-11-19T23:51:07.500Z,41.22
2022-11-19T23:53:34.462Z,41.58
2022-11-19T23:56:01.501Z,39.47
2022-11-19T23:58:28.362Z,35.45
